sensor_id;sensor_type;location;lat;lon;timestamp;pressure;altitude;pressure_sealevel;temperature;humidity
76627;BME280;65519;53.230;10.390;2024-03-08T00:00:26;102025.13;;;2.89;100.00
76627;BME280;65519;53.230;10.390;2024-03-08T00:02:52;102018.38;;;2.79;100.00
76627;BME280;65519;53.230;10.390;2024-03-08T00:05:19;102033.38;;;2.73;100.00
76627;BME280;65519;53.230;10.390;2024-03-08T00:07:45;102022.34;;;2.68;100.00
76627;BME280;65519;53.230;10.390;2024-03-08T00:10:12;102010.63;;;2.61;100.00
76627;BME280;65519;53.230;10.390;2024-03-08T00:12:42;102023.00;;;2.70;100.00
76627;BME280;65519;53.230;10.390;2024-03-08T00:15:09;102029.13;;;2.64;100.00
76627;BME280;65519;53.230;10.390;2024-03-08T00:17:36;102015.66;;;2.64;100.00
76627;BME280;65519;53.230;10.390;2024-03-08T00:20:02;102021.50;;;2.68;100.00
76627;BME280;65519;53.230;10.390;2024-03-08T00:22:34;102022.88;;;2.64;100.00
76627;BME280;65519;53.230;10.390;2024-03-08T00:24:59;102025.41;;;2.65;100.00
76627;BME280;65519;53.230;10.390;2024-03-08T00:27:25;102018.13;;;2.51;100.00
76627;BME280;65519;53.230;10.390;2024-03-08T00:29:50;102022.31;;;2.53;100.00
76627;BME280;65519;53.230;10.390;2024-03-08T00:32:15;102010.91;;;2.51;100.00
76627;BME280;65519;53.230;10.390;2024-03-08T00:34:42;102013.38;;;2.38;100.00
76627;BME280;65519;53.230;10.390;2024-03-08T00:37:08;102011.16;;;2.42;100.00
76627;BME280;65519;53.230;10.390;2024-03-08T00:39:34;102006.91;;;2.47;100.00
76627;BME280;65519;53.230;10.390;2024-03-08T00:41:59;102021.56;;;2.45;100.00
76627;BME280;65519;53.230;10.390;2024-03-08T00:44:25;102020.09;;;2.57;100.00
76627;BME280;65519;53.230;10.390;2024-03-08T00:46:50;102012.75;;;2.51;100.00
76627;BME280;65519;53.230;10.390;2024-03-08T00:49:16;102006.34;;;2.37;100.00
76627;BME280;65519;53.230;10.390;2024-03-08T00:51:42;102009.97;;;2.44;100.00
76627;BME280;65519;53.230;10.390;2024-03-08T00:54:08;102006.88;;;2.33;100.00
76627;BME280;65519;53.230;10.390;2024-03-08T00:56:34;102007.41;;;2.28;100.00
76627;BME280;65519;53.230;10.390;2024-03-08T00:59:01;102012.44;;;2.31;100.00
76627;BME280;65519;53.230;10.390;2024-03-08T01:01:28;102002.44;;;2.40;100.00
76627;BME280;65519;53.230;10.390;2024-03-08T01:03:53;101997.50;;;2.29;100.00
76627;BME280;65519;53.230;10.390;2024-03-08T01:06:19;102001.59;;;2.39;100.00
76627;BME280;65519;53.230;10.390;2024-03-08T01:08:45;101988.13;;;2.25;100.00
76627;BME280;65519;53.230;10.390;2024-03-08T01:11:13;101986.75;;;2.29;100.00
76627;BME280;65519;53.230;10.390;2024-03-08T01:13:39;101986.47;;;2.24;100.00
76627;BME280;65519;53.230;10.390;2024-03-08T01:16:05;101989.91;;;2.32;100.00
76627;BME280;65519;53.230;10.390;2024-03-08T01:18:30;101990.53;;;2.19;100.00
76627;BME280;65519;53.230;10.390;2024-03-08T01:20:55;101988.56;;;2.13;100.00
76627;BME280;65519;53.230;10.390;2024-03-08T01:23:21;101974.47;;;2.11;100.00
76627;BME280;65519;53.230;10.390;2024-03-08T01:25:46;101976.31;;;2.11;100.00
76627;BME280;65519;53.230;10.390;2024-03-08T01:28:14;101976.09;;;1.98;100.00
76627;BME280;65519;53.230;10.390;2024-03-08T01:30:39;101967.38;;;1.96;100.00
76627;BME280;65519;53.230;10.390;2024-03-08T01:33:06;101962.13;;;2.02;100.00
76627;BME280;65519;53.230;10.390;2024-03-08T01:35:32;101959.13;;;1.97;100.00
76627;BME280;65519;53.230;10.390;2024-03-08T01:37:57;101957.56;;;2.03;100.00
76627;BME280;65519;53.230;10.390;2024-03-08T01:40:22;101955.25;;;2.00;100.00
76627;BME280;65519;53.230;10.390;2024-03-08T01:42:48;101954.13;;;1.94;100.00
76627;BME280;65519;53.230;10.390;2024-03-08T01:45:13;101960.94;;;1.82;100.00
76627;BME280;65519;53.230;10.390;2024-03-08T01:47:39;101950.22;;;1.97;100.00
76627;BME280;65519;53.230;10.390;2024-03-08T01:50:05;101940.19;;;1.91;100.00
76627;BME280;65519;53.230;10.390;2024-03-08T01:52:32;101942.41;;;1.87;100.00
76627;BME280;65519;53.230;10.390;2024-03-08T01:55:04;101939.28;;;1.98;100.00
76627;BME280;65519;53.230;10.390;2024-03-08T01:57:33;101932.00;;;1.84;100.00
76627;BME280;65519;53.230;10.390;2024-03-08T02:00:00;101931.13;;;1.92;100.00
76627;BME280;65519;53.230;10.390;2024-03-08T02:02:32;101931.06;;;1.77;100.00
76627;BME280;65519;53.230;10.390;2024-03-08T02:04:57;101920.63;;;1.82;100.00
76627;BME280;65519;53.230;10.390;2024-03-08T02:07:23;101925.09;;;1.90;100.00
76627;BME280;65519;53.230;10.390;2024-03-08T02:09:48;101921.63;;;1.81;100.00
76627;BME280;65519;53.230;10.390;2024-03-08T02:12:14;101923.94;;;1.84;100.00
76627;BME280;65519;53.230;10.390;2024-03-08T02:14:39;101923.06;;;1.92;100.00
76627;BME280;65519;53.230;10.390;2024-03-08T02:17:05;101921.56;;;1.89;100.00
76627;BME280;65519;53.230;10.390;2024-03-08T02:19:30;101918.13;;;1.95;100.00
76627;BME280;65519;53.230;10.390;2024-03-08T02:21:57;101914.91;;;2.00;100.00
76627;BME280;65519;53.230;10.390;2024-03-08T02:24:23;101925.47;;;2.01;100.00
76627;BME280;65519;53.230;10.390;2024-03-08T02:26:49;101917.06;;;2.04;100.00
76627;BME280;65519;53.230;10.390;2024-03-08T02:29:14;101914.63;;;2.09;100.00
76627;BME280;65519;53.230;10.390;2024-03-08T02:31:40;101914.03;;;1.84;100.00
76627;BME280;65519;53.230;10.390;2024-03-08T02:34:05;101914.31;;;1.90;100.00
76627;BME280;65519;53.230;10.390;2024-03-08T02:36:31;101909.28;;;1.72;100.00
76627;BME280;65519;53.230;10.390;2024-03-08T02:39:02;101910.22;;;1.79;100.00
76627;BME280;65519;53.230;10.390;2024-03-08T02:41:28;101914.34;;;1.67;100.00
76627;BME280;65519;53.230;10.390;2024-03-08T02:43:53;101906.41;;;1.73;100.00
76627;BME280;65519;53.230;10.390;2024-03-08T02:46:20;101897.03;;;1.69;100.00
76627;BME280;65519;53.230;10.390;2024-03-08T02:48:46;101902.50;;;1.61;100.00
76627;BME280;65519;53.230;10.390;2024-03-08T02:51:12;101900.44;;;1.63;100.00
76627;BME280;65519;53.230;10.390;2024-03-08T02:53:38;101902.66;;;1.60;100.00
76627;BME280;65519;53.230;10.390;2024-03-08T02:56:04;101886.88;;;1.79;100.00
76627;BME280;65519;53.230;10.390;2024-03-08T02:58:33;101883.78;;;1.68;100.00
76627;BME280;65519;53.230;10.390;2024-03-08T03:00:59;101885.38;;;1.77;100.00
76627;BME280;65519;53.230;10.390;2024-03-08T03:03:24;101878.84;;;1.57;100.00
76627;BME280;65519;53.230;10.390;2024-03-08T03:05:52;101889.72;;;1.40;100.00
76627;BME280;65519;53.230;10.390;2024-03-08T03:08:21;101882.97;;;1.44;100.00
76627;BME280;65519;53.230;10.390;2024-03-08T03:10:46;101875.66;;;1.53;100.00
76627;BME280;65519;53.230;10.390;2024-03-08T03:13:12;101879.50;;;1.59;100.00
76627;BME280;65519;53.230;10.390;2024-03-08T03:15:37;101889.34;;;1.43;100.00
76627;BME280;65519;53.230;10.390;2024-03-08T03:18:03;101877.72;;;1.51;100.00
76627;BME280;65519;53.230;10.390;2024-03-08T03:20:29;101876.22;;;1.49;100.00
76627;BME280;65519;53.230;10.390;2024-03-08T03:23:06;101879.16;;;1.39;100.00
76627;BME280;65519;53.230;10.390;2024-03-08T03:25:34;101886.38;;;1.38;100.00
76627;BME280;65519;53.230;10.390;2024-03-08T03:28:03;101883.88;;;1.37;100.00
76627;BME280;65519;53.230;10.390;2024-03-08T03:30:30;101879.03;;;1.32;100.00
76627;BME280;65519;53.230;10.390;2024-03-08T03:32:59;101883.03;;;1.36;100.00
76627;BME280;65519;53.230;10.390;2024-03-08T03:35:32;101881.41;;;1.50;100.00
76627;BME280;65519;53.230;10.390;2024-03-08T03:37:57;101882.78;;;1.46;100.00
76627;BME280;65519;53.230;10.390;2024-03-08T03:40:41;101885.22;;;1.33;100.00
76627;BME280;65519;53.230;10.390;2024-03-08T03:43:06;101885.38;;;1.39;100.00
76627;BME280;65519;53.230;10.390;2024-03-08T03:45:32;101882.84;;;1.38;100.00
76627;BME280;65519;53.230;10.390;2024-03-08T03:48:04;101880.78;;;1.63;100.00
76627;BME280;65519;53.230;10.390;2024-03-08T03:50:31;101875.22;;;1.50;100.00
76627;BME280;65519;53.230;10.390;2024-03-08T03:52:59;101872.28;;;1.36;100.00
76627;BME280;65519;53.230;10.390;2024-03-08T03:55:25;101876.81;;;1.13;100.00
76627;BME280;65519;53.230;10.390;2024-03-08T03:57:50;101877.25;;;1.25;100.00
76627;BME280;65519;53.230;10.390;2024-03-08T04:00:16;101873.78;;;1.16;100.00
76627;BME280;65519;53.230;10.390;2024-03-08T04:02:42;101869.09;;;1.10;100.00
76627;BME280;65519;53.230;10.390;2024-03-08T04:05:09;101872.78;;;1.17;100.00
76627;BME280;65519;53.230;10.390;2024-03-08T04:07:35;101869.25;;;1.17;100.00
76627;BME280;65519;53.230;10.390;2024-03-08T04:10:05;101872.38;;;1.20;100.00
76627;BME280;65519;53.230;10.390;2024-03-08T04:12:34;101869.16;;;1.02;100.00
76627;BME280;65519;53.230;10.390;2024-03-08T04:14:59;101874.13;;;1.13;100.00
76627;BME280;65519;53.230;10.390;2024-03-08T04:17:25;101869.72;;;0.97;100.00
76627;BME280;65519;53.230;10.390;2024-03-08T04:19:51;101875.13;;;1.12;100.00
76627;BME280;65519;53.230;10.390;2024-03-08T04:22:17;101871.56;;;0.97;100.00
76627;BME280;65519;53.230;10.390;2024-03-08T04:24:44;101867.81;;;1.06;100.00
76627;BME280;65519;53.230;10.390;2024-03-08T04:27:09;101868.22;;;0.95;100.00
76627;BME280;65519;53.230;10.390;2024-03-08T04:29:35;101870.50;;;1.06;100.00
76627;BME280;65519;53.230;10.390;2024-03-08T04:32:03;101870.78;;;1.11;100.00
76627;BME280;65519;53.230;10.390;2024-03-08T04:34:29;101862.47;;;0.98;100.00
76627;BME280;65519;53.230;10.390;2024-03-08T04:36:57;101860.50;;;0.92;100.00
76627;BME280;65519;53.230;10.390;2024-03-08T04:39:22;101859.91;;;0.82;100.00
76627;BME280;65519;53.230;10.390;2024-03-08T04:41:49;101855.09;;;1.00;100.00
76627;BME280;65519;53.230;10.390;2024-03-08T04:44:15;101853.56;;;1.05;100.00
76627;BME280;65519;53.230;10.390;2024-03-08T04:46:41;101858.44;;;1.02;100.00
76627;BME280;65519;53.230;10.390;2024-03-08T04:49:06;101855.81;;;0.94;100.00
76627;BME280;65519;53.230;10.390;2024-03-08T04:51:33;101852.63;;;0.90;100.00
76627;BME280;65519;53.230;10.390;2024-03-08T04:53:59;101849.78;;;0.92;100.00
76627;BME280;65519;53.230;10.390;2024-03-08T04:56:25;101848.16;;;0.83;100.00
76627;BME280;65519;53.230;10.390;2024-03-08T04:58:51;101849.56;;;0.70;100.00
76627;BME280;65519;53.230;10.390;2024-03-08T05:01:16;101847.50;;;0.81;100.00
76627;BME280;65519;53.230;10.390;2024-03-08T05:03:42;101842.84;;;0.75;100.00
76627;BME280;65519;53.230;10.390;2024-03-08T05:06:07;101845.56;;;0.66;100.00
76627;BME280;65519;53.230;10.390;2024-03-08T05:08:33;101848.31;;;0.81;100.00
76627;BME280;65519;53.230;10.390;2024-03-08T05:10:59;101847.78;;;0.63;100.00
76627;BME280;65519;53.230;10.390;2024-03-08T05:13:31;101845.44;;;0.60;100.00
76627;BME280;65519;53.230;10.390;2024-03-08T05:15:57;101841.75;;;0.61;100.00
76627;BME280;65519;53.230;10.390;2024-03-08T05:18:24;101834.81;;;0.66;100.00
76627;BME280;65519;53.230;10.390;2024-03-08T05:20:50;101832.00;;;0.60;100.00
76627;BME280;65519;53.230;10.390;2024-03-08T05:23:16;101832.09;;;0.75;100.00
76627;BME280;65519;53.230;10.390;2024-03-08T05:25:41;101833.81;;;0.67;100.00
76627;BME280;65519;53.230;10.390;2024-03-08T05:28:06;101829.09;;;0.69;100.00
76627;BME280;65519;53.230;10.390;2024-03-08T05:30:32;101834.81;;;0.66;100.00
76627;BME280;65519;53.230;10.390;2024-03-08T05:32:57;101833.63;;;0.69;100.00
76627;BME280;65519;53.230;10.390;2024-03-08T05:35:23;101833.13;;;0.65;100.00
76627;BME280;65519;53.230;10.390;2024-03-08T05:37:49;101837.47;;;0.75;100.00
76627;BME280;65519;53.230;10.390;2024-03-08T05:40:15;101834.13;;;0.72;100.00
76627;BME280;65519;53.230;10.390;2024-03-08T05:42:40;101834.69;;;0.91;100.00
76627;BME280;65519;53.230;10.390;2024-03-08T05:45:06;101830.50;;;0.88;100.00
76627;BME280;65519;53.230;10.390;2024-03-08T05:47:32;101827.34;;;0.85;100.00
76627;BME280;65519;53.230;10.390;2024-03-08T05:50:00;101826.97;;;0.65;100.00
76627;BME280;65519;53.230;10.390;2024-03-08T05:52:26;101830.28;;;0.67;100.00
76627;BME280;65519;53.230;10.390;2024-03-08T05:54:52;101833.13;;;0.65;100.00
76627;BME280;65519;53.230;10.390;2024-03-08T05:57:17;101834.13;;;0.72;100.00
76627;BME280;65519;53.230;10.390;2024-03-08T05:59:43;101833.13;;;0.73;100.00
76627;BME280;65519;53.230;10.390;2024-03-08T06:02:08;101831.63;;;0.71;100.00
76627;BME280;65519;53.230;10.390;2024-03-08T06:04:34;101839.50;;;0.72;100.00
76627;BME280;65519;53.230;10.390;2024-03-08T06:06:59;101831.56;;;0.79;100.00
76627;BME280;65519;53.230;10.390;2024-03-08T06:09:25;101830.44;;;0.73;100.00
76627;BME280;65519;53.230;10.390;2024-03-08T06:11:51;101831.16;;;0.90;100.00
76627;BME280;65519;53.230;10.390;2024-03-08T06:14:17;101825.59;;;0.92;100.00
76627;BME280;65519;53.230;10.390;2024-03-08T06:16:47;101830.91;;;1.00;100.00
76627;BME280;65519;53.230;10.390;2024-03-08T06:19:15;101828.19;;;0.85;100.00
76627;BME280;65519;53.230;10.390;2024-03-08T06:21:41;101824.78;;;0.91;100.00
76627;BME280;65519;53.230;10.390;2024-03-08T06:24:06;101829.97;;;0.93;100.00
76627;BME280;65519;53.230;10.390;2024-03-08T06:26:32;101831.38;;;0.81;100.00
76627;BME280;65519;53.230;10.390;2024-03-08T06:28:57;101825.94;;;0.97;100.00
76627;BME280;65519;53.230;10.390;2024-03-08T06:31:23;101835.00;;;0.96;100.00
76627;BME280;65519;53.230;10.390;2024-03-08T06:33:49;101829.66;;;0.88;100.00
76627;BME280;65519;53.230;10.390;2024-03-08T06:36:18;101826.63;;;0.91;100.00
76627;BME280;65519;53.230;10.390;2024-03-08T06:38:46;101820.13;;;0.85;100.00
76627;BME280;65519;53.230;10.390;2024-03-08T06:41:11;101822.50;;;0.80;100.00
76627;BME280;65519;53.230;10.390;2024-03-08T06:43:43;101820.66;;;0.81;100.00
76627;BME280;65519;53.230;10.390;2024-03-08T06:46:09;101810.97;;;0.71;100.00
76627;BME280;65519;53.230;10.390;2024-03-08T06:48:35;101821.16;;;0.84;100.00
76627;BME280;65519;53.230;10.390;2024-03-08T06:51:02;101817.22;;;0.95;100.00
76627;BME280;65519;53.230;10.390;2024-03-08T06:53:28;101819.94;;;0.87;100.00
76627;BME280;65519;53.230;10.390;2024-03-08T06:55:53;101825.09;;;0.96;100.00
76627;BME280;65519;53.230;10.390;2024-03-08T06:58:19;101819.47;;;1.06;100.00
76627;BME280;65519;53.230;10.390;2024-03-08T07:00:45;101825.88;;;1.05;100.00
76627;BME280;65519;53.230;10.390;2024-03-08T07:03:10;101824.47;;;1.09;100.00
76627;BME280;65519;53.230;10.390;2024-03-08T07:05:37;101815.47;;;1.02;100.00
76627;BME280;65519;53.230;10.390;2024-03-08T07:08:03;101823.09;;;1.13;100.00
76627;BME280;65519;53.230;10.390;2024-03-08T07:10:29;101819.41;;;1.14;100.00
76627;BME280;65519;53.230;10.390;2024-03-08T07:12:54;101816.88;;;1.35;100.00
76627;BME280;65519;53.230;10.390;2024-03-08T07:15:20;101824.59;;;1.38;100.00
76627;BME280;65519;53.230;10.390;2024-03-08T07:17:46;101817.38;;;1.54;100.00
76627;BME280;65519;53.230;10.390;2024-03-08T07:20:13;101822.03;;;1.60;100.00
76627;BME280;65519;53.230;10.390;2024-03-08T07:22:39;101822.75;;;1.54;100.00
76627;BME280;65519;53.230;10.390;2024-03-08T07:25:06;101817.59;;;1.67;100.00
76627;BME280;65519;53.230;10.390;2024-03-08T07:27:48;101814.75;;;1.83;100.00
76627;BME280;65519;53.230;10.390;2024-03-08T07:30:14;101818.53;;;1.74;100.00
76627;BME280;65519;53.230;10.390;2024-03-08T07:32:59;101823.00;;;1.96;100.00
76627;BME280;65519;53.230;10.390;2024-03-08T07:35:27;101815.03;;;2.03;100.00
76627;BME280;65519;53.230;10.390;2024-03-08T07:37:54;101820.59;;;2.16;100.00
76627;BME280;65519;53.230;10.390;2024-03-08T07:40:25;101826.44;;;2.19;100.00
76627;BME280;65519;53.230;10.390;2024-03-08T07:42:51;101825.13;;;2.30;100.00
76627;BME280;65519;53.230;10.390;2024-03-08T07:45:16;101818.25;;;2.42;100.00
76627;BME280;65519;53.230;10.390;2024-03-08T07:47:42;101816.75;;;2.40;100.00
76627;BME280;65519;53.230;10.390;2024-03-08T07:50:08;101815.00;;;2.47;100.00
76627;BME280;65519;53.230;10.390;2024-03-08T07:52:34;101818.03;;;2.59;100.00
76627;BME280;65519;53.230;10.390;2024-03-08T07:55:01;101812.84;;;2.57;100.00
76627;BME280;65519;53.230;10.390;2024-03-08T07:57:26;101816.69;;;2.48;100.00
76627;BME280;65519;53.230;10.390;2024-03-08T07:59:51;101815.72;;;2.55;100.00
76627;BME280;65519;53.230;10.390;2024-03-08T08:02:17;101813.94;;;2.63;100.00
76627;BME280;65519;53.230;10.390;2024-03-08T08:04:43;101815.56;;;2.78;100.00
76627;BME280;65519;53.230;10.390;2024-03-08T08:07:10;101808.66;;;2.90;100.00
76627;BME280;65519;53.230;10.390;2024-03-08T08:09:36;101793.22;;;2.99;100.00
76627;BME280;65519;53.230;10.390;2024-03-08T08:12:03;101800.78;;;3.10;100.00
76627;BME280;65519;53.230;10.390;2024-03-08T08:14:29;101799.56;;;3.13;100.00
76627;BME280;65519;53.230;10.390;2024-03-08T08:16:56;101800.06;;;3.23;100.00
76627;BME280;65519;53.230;10.390;2024-03-08T08:19:23;101803.75;;;3.43;100.00
76627;BME280;65519;53.230;10.390;2024-03-08T08:21:48;101800.56;;;3.33;100.00
76627;BME280;65519;53.230;10.390;2024-03-08T08:24:14;101801.00;;;3.37;100.00
76627;BME280;65519;53.230;10.390;2024-03-08T08:26:40;101797.84;;;3.54;100.00
76627;BME280;65519;53.230;10.390;2024-03-08T08:29:06;101797.00;;;3.54;100.00
76627;BME280;65519;53.230;10.390;2024-03-08T08:31:32;101802.44;;;3.60;100.00
76627;BME280;65519;53.230;10.390;2024-03-08T08:33:58;101797.59;;;3.77;100.00
76627;BME280;65519;53.230;10.390;2024-03-08T08:36:25;101804.72;;;3.91;100.00
76627;BME280;65519;53.230;10.390;2024-03-08T08:38:51;101794.53;;;3.87;100.00
76627;BME280;65519;53.230;10.390;2024-03-08T08:41:19;101795.66;;;3.99;100.00
76627;BME280;65519;53.230;10.390;2024-03-08T08:43:44;101795.50;;;4.07;100.00
76627;BME280;65519;53.230;10.390;2024-03-08T08:46:10;101790.72;;;4.09;100.00
76627;BME280;65519;53.230;10.390;2024-03-08T08:48:39;101781.88;;;4.22;100.00
76627;BME280;65519;53.230;10.390;2024-03-08T08:51:11;101780.84;;;4.29;100.00
76627;BME280;65519;53.230;10.390;2024-03-08T08:53:41;101780.47;;;4.39;100.00
76627;BME280;65519;53.230;10.390;2024-03-08T08:56:14;101782.16;;;4.47;100.00
76627;BME280;65519;53.230;10.390;2024-03-08T08:58:44;101783.03;;;4.60;100.00
76627;BME280;65519;53.230;10.390;2024-03-08T09:01:10;101770.13;;;4.56;100.00
76627;BME280;65519;53.230;10.390;2024-03-08T09:03:37;101775.59;;;4.69;100.00
76627;BME280;65519;53.230;10.390;2024-03-08T09:06:08;101770.41;;;4.74;100.00
76627;BME280;65519;53.230;10.390;2024-03-08T09:08:37;101768.16;;;4.84;100.00
76627;BME280;65519;53.230;10.390;2024-03-08T09:11:06;101764.41;;;4.98;100.00
76627;BME280;65519;53.230;10.390;2024-03-08T09:13:32;101768.38;;;4.96;100.00
76627;BME280;65519;53.230;10.390;2024-03-08T09:16:01;101755.69;;;5.09;100.00
76627;BME280;65519;53.230;10.390;2024-03-08T09:18:28;101755.28;;;5.12;100.00
76627;BME280;65519;53.230;10.390;2024-03-08T09:20:54;101757.78;;;5.21;100.00
76627;BME280;65519;53.230;10.390;2024-03-08T09:23:20;101745.75;;;5.30;100.00
76627;BME280;65519;53.230;10.390;2024-03-08T09:25:45;101743.63;;;5.32;100.00
76627;BME280;65519;53.230;10.390;2024-03-08T09:28:12;101738.22;;;5.45;100.00
76627;BME280;65519;53.230;10.390;2024-03-08T09:30:40;101742.81;;;5.38;100.00
76627;BME280;65519;53.230;10.390;2024-03-08T09:33:06;101736.56;;;5.57;100.00
76627;BME280;65519;53.230;10.390;2024-03-08T09:35:32;101734.47;;;5.72;100.00
76627;BME280;65519;53.230;10.390;2024-03-08T09:37:57;101731.31;;;5.75;100.00
76627;BME280;65519;53.230;10.390;2024-03-08T09:40:23;101744.84;;;5.82;100.00
76627;BME280;65519;53.230;10.390;2024-03-08T09:42:51;101727.31;;;5.98;100.00
76627;BME280;65519;53.230;10.390;2024-03-08T09:45:20;101733.97;;;6.02;100.00
76627;BME280;65519;53.230;10.390;2024-03-08T09:47:47;101726.91;;;6.01;100.00
76627;BME280;65519;53.230;10.390;2024-03-08T09:50:14;101715.00;;;6.15;100.00
76627;BME280;65519;53.230;10.390;2024-03-08T09:52:40;101723.94;;;6.09;100.00
76627;BME280;65519;53.230;10.390;2024-03-08T09:55:06;101716.88;;;6.14;100.00
76627;BME280;65519;53.230;10.390;2024-03-08T09:57:33;101704.75;;;6.23;100.00
76627;BME280;65519;53.230;10.390;2024-03-08T09:59:59;101711.59;;;6.26;100.00
76627;BME280;65519;53.230;10.390;2024-03-08T10:02:24;101705.31;;;6.32;100.00
76627;BME280;65519;53.230;10.390;2024-03-08T10:04:51;101701.56;;;6.33;100.00
76627;BME280;65519;53.230;10.390;2024-03-08T10:07:18;101699.13;;;6.56;100.00
76627;BME280;65519;53.230;10.390;2024-03-08T10:09:44;101699.34;;;6.55;100.00
76627;BME280;65519;53.230;10.390;2024-03-08T10:12:16;101679.00;;;6.71;100.00
76627;BME280;65519;53.230;10.390;2024-03-08T10:14:42;101688.34;;;6.81;100.00
76627;BME280;65519;53.230;10.390;2024-03-08T10:17:08;101677.59;;;6.93;100.00
76627;BME280;65519;53.230;10.390;2024-03-08T10:19:33;101676.41;;;6.89;100.00
76627;BME280;65519;53.230;10.390;2024-03-08T10:21:59;101659.59;;;6.80;100.00
76627;BME280;65519;53.230;10.390;2024-03-08T10:24:25;101657.78;;;6.92;100.00
76627;BME280;65519;53.230;10.390;2024-03-08T10:26:52;101664.00;;;7.24;98.31
76627;BME280;65519;53.230;10.390;2024-03-08T10:29:18;101651.59;;;7.35;90.89
76627;BME280;65519;53.230;10.390;2024-03-08T10:31:44;101648.03;;;7.35;88.84
76627;BME280;65519;53.230;10.390;2024-03-08T10:34:10;101651.38;;;7.55;87.27
76627;BME280;65519;53.230;10.390;2024-03-08T10:36:36;101641.88;;;7.64;83.53
76627;BME280;65519;53.230;10.390;2024-03-08T10:39:08;101642.47;;;7.84;79.83
76627;BME280;65519;53.230;10.390;2024-03-08T10:41:37;101645.81;;;8.16;78.52
76627;BME280;65519;53.230;10.390;2024-03-08T10:44:26;101649.94;;;8.19;76.39
76627;BME280;65519;53.230;10.390;2024-03-08T10:47:21;101640.53;;;8.21;71.63
76627;BME280;65519;53.230;10.390;2024-03-08T10:49:54;101631.63;;;8.32;71.69
76627;BME280;65519;53.230;10.390;2024-03-08T10:52:20;101629.06;;;8.19;69.17
76627;BME280;65519;53.230;10.390;2024-03-08T10:54:47;101624.91;;;8.17;69.75
76627;BME280;65519;53.230;10.390;2024-03-08T10:57:14;101612.66;;;8.26;69.00
76627;BME280;65519;53.230;10.390;2024-03-08T10:59:42;101624.94;;;8.28;68.85
76627;BME280;65519;53.230;10.390;2024-03-08T11:02:11;101619.50;;;8.28;67.74
76627;BME280;65519;53.230;10.390;2024-03-08T11:04:37;101606.75;;;8.29;66.11
76627;BME280;65519;53.230;10.390;2024-03-08T11:07:03;101602.34;;;8.46;65.18
76627;BME280;65519;53.230;10.390;2024-03-08T11:09:37;101609.94;;;8.67;66.19
76627;BME280;65519;53.230;10.390;2024-03-08T11:12:21;101598.50;;;9.00;65.71
76627;BME280;65519;53.230;10.390;2024-03-08T11:14:51;101602.06;;;9.01;64.43
76627;BME280;65519;53.230;10.390;2024-03-08T11:19:55;101589.53;;;9.00;64.32
76627;BME280;65519;53.230;10.390;2024-03-08T11:22:28;101590.94;;;8.91;63.96
76627;BME280;65519;53.230;10.390;2024-03-08T11:25:04;101584.66;;;8.90;63.16
76627;BME280;65519;53.230;10.390;2024-03-08T11:27:37;101577.72;;;8.94;63.60
76627;BME280;65519;53.230;10.390;2024-03-08T11:30:07;101575.19;;;9.39;63.80
76627;BME280;65519;53.230;10.390;2024-03-08T11:32:46;101574.00;;;9.35;62.16
76627;BME280;65519;53.230;10.390;2024-03-08T11:35:19;101563.94;;;9.36;61.72
76627;BME280;65519;53.230;10.390;2024-03-08T11:37:45;101568.31;;;9.48;60.54
76627;BME280;65519;53.230;10.390;2024-03-08T11:40:14;101560.84;;;9.44;61.01
76627;BME280;65519;53.230;10.390;2024-03-08T11:42:48;101551.00;;;9.55;60.84
76627;BME280;65519;53.230;10.390;2024-03-08T11:45:17;101561.13;;;9.71;61.07
76627;BME280;65519;53.230;10.390;2024-03-08T11:47:44;101556.28;;;9.73;60.05
76627;BME280;65519;53.230;10.390;2024-03-08T11:50:12;101551.91;;;9.72;59.56
76627;BME280;65519;53.230;10.390;2024-03-08T11:52:37;101545.31;;;9.84;59.32
76627;BME280;65519;53.230;10.390;2024-03-08T11:55:03;101543.56;;;9.78;58.25
76627;BME280;65519;53.230;10.390;2024-03-08T11:57:30;101546.91;;;9.80;58.64
76627;BME280;65519;53.230;10.390;2024-03-08T11:59:56;101534.53;;;9.61;58.86
76627;BME280;65519;53.230;10.390;2024-03-08T12:02:22;101538.97;;;9.79;59.30
76627;BME280;65519;53.230;10.390;2024-03-08T12:04:56;101529.09;;;9.89;60.07
76627;BME280;65519;53.230;10.390;2024-03-08T12:07:21;101528.41;;;10.28;59.21
76627;BME280;65519;53.230;10.390;2024-03-08T12:10:22;101522.19;;;10.27;56.96
76627;BME280;65519;53.230;10.390;2024-03-08T12:12:49;101512.75;;;10.51;56.60
76627;BME280;65519;53.230;10.390;2024-03-08T12:15:17;101510.34;;;10.55;56.54
76627;BME280;65519;53.230;10.390;2024-03-08T12:17:44;101505.97;;;10.54;53.92
76627;BME280;65519;53.230;10.390;2024-03-08T12:20:23;101506.13;;;10.31;53.20
76627;BME280;65519;53.230;10.390;2024-03-08T12:22:53;101499.19;;;10.40;52.98
76627;BME280;65519;53.230;10.390;2024-03-08T12:25:19;101490.78;;;10.41;53.47
76627;BME280;65519;53.230;10.390;2024-03-08T12:27:46;101485.97;;;10.65;52.88
76627;BME280;65519;53.230;10.390;2024-03-08T12:30:19;101485.63;;;10.61;52.43
76627;BME280;65519;53.230;10.390;2024-03-08T12:32:53;101490.47;;;11.15;53.58
76627;BME280;65519;53.230;10.390;2024-03-08T12:35:22;101473.66;;;11.01;51.59
76627;BME280;65519;53.230;10.390;2024-03-08T12:37:53;101468.00;;;11.08;51.58
76627;BME280;65519;53.230;10.390;2024-03-08T12:40:21;101467.53;;;10.94;50.69
76627;BME280;65519;53.230;10.390;2024-03-08T12:42:50;101475.69;;;11.32;51.12